Terminal Aerodrome Forecast
Issued by NWS

Home | Current Version | Previous Version | Text Only | Print | Product List | Glossary On
Versions: 1 2 3 4 5 6 7 8 9 10 11 12 13 14 15 16 17 18
000
FTAK31 PAJN 050952 AAB
TAFAKT
TAF AMD
PAKT 050952Z 0510/0606 18004KT 3SM BR FEW003 SCT010 OVC020
      TEMPO 0510/0514 1SM BR BKN003
     FM051500 18004KT 3SM BR BKN007
     FM051800 14005KT P6SM BKN050
     FM052200 14009KT P6SM BKN070
     FM060300 14003KT P6SM BKN070=

USA.gov is the U.S. government's official web portal to all federal, state and local government web resources and services.